sensor_id;sensor_type;location;lat;lon;timestamp;P1;durP1;ratioP1;P2;durP2;ratioP2
75342;SDS011;63936;51.006;13.764;2023-12-28T00:00:02;8;;;4;;
75342;SDS011;63936;51.006;13.764;2023-12-28T00:02:01;8;;;4;;
75342;SDS011;63936;51.006;13.764;2023-12-28T00:04:01;9;;;4;;
75342;SDS011;63936;51.006;13.764;2023-12-28T00:06:01;10;;;4;;
75342;SDS011;63936;51.006;13.764;2023-12-28T00:08:01;10;;;4;;
75342;SDS011;63936;51.006;13.764;2023-12-28T00:10:02;9;;;4;;
75342;SDS011;63936;51.006;13.764;2023-12-28T00:12:01;9;;;3;;
75342;SDS011;63936;51.006;13.764;2023-12-28T00:14:01;8;;;4;;
75342;SDS011;63936;51.006;13.764;2023-12-28T00:16:01;9;;;4;;
75342;SDS011;63936;51.006;13.764;2023-12-28T00:18:01;8;;;4;;
75342;SDS011;63936;51.006;13.764;2023-12-28T00:20:01;11;;;4;;
75342;SDS011;63936;51.006;13.764;2023-12-28T00:22:01;9;;;3;;
75342;SDS011;63936;51.006;13.764;2023-12-28T00:24:01;10;;;4;;
75342;SDS011;63936;51.006;13.764;2023-12-28T00:26:01;8;;;3;;
75342;SDS011;63936;51.006;13.764;2023-12-28T00:28:01;11;;;4;;
75342;SDS011;63936;51.006;13.764;2023-12-28T00:30:02;12;;;4;;
75342;SDS011;63936;51.006;13.764;2023-12-28T00:32:01;10;;;4;;
75342;SDS011;63936;51.006;13.764;2023-12-28T00:34:01;12;;;4;;
75342;SDS011;63936;51.006;13.764;2023-12-28T00:36:01;9;;;4;;
75342;SDS011;63936;51.006;13.764;2023-12-28T00:38:01;10;;;5;;
75342;SDS011;63936;51.006;13.764;2023-12-28T00:40:02;10;;;5;;
75342;SDS011;63936;51.006;13.764;2023-12-28T00:42:01;9;;;4;;
75342;SDS011;63936;51.006;13.764;2023-12-28T00:44:01;8;;;4;;
75342;SDS011;63936;51.006;13.764;2023-12-28T00:46:01;8;;;3;;
75342;SDS011;63936;51.006;13.764;2023-12-28T00:48:01;12;;;3;;
75342;SDS011;63936;51.006;13.764;2023-12-28T00:50:01;9;;;3;;
75342;SDS011;63936;51.006;13.764;2023-12-28T00:52:01;7;;;3;;
75342;SDS011;63936;51.006;13.764;2023-12-28T00:54:01;8;;;3;;
75342;SDS011;63936;51.006;13.764;2023-12-28T00:56:01;9;;;3;;
75342;SDS011;63936;51.006;13.764;2023-12-28T00:58:01;7;;;3;;
75342;SDS011;63936;51.006;13.764;2023-12-28T01:00:02;8;;;3;;
75342;SDS011;63936;51.006;13.764;2023-12-28T01:02:03;7;;;3;;
75342;SDS011;63936;51.006;13.764;2023-12-28T01:04:02;7;;;3;;
75342;SDS011;63936;51.006;13.764;2023-12-28T01:06:04;9;;;4;;
75342;SDS011;63936;51.006;13.764;2023-12-28T01:08:03;9;;;4;;
75342;SDS011;63936;51.006;13.764;2023-12-28T01:10:05;8;;;3;;
75342;SDS011;63936;51.006;13.764;2023-12-28T01:12:04;8;;;4;;
75342;SDS011;63936;51.006;13.764;2023-12-28T01:14:04;7;;;4;;
75342;SDS011;63936;51.006;13.764;2023-12-28T01:16:03;7;;;3;;
75342;SDS011;63936;51.006;13.764;2023-12-28T01:18:03;8;;;3;;
75342;SDS011;63936;51.006;13.764;2023-12-28T01:20:09;9;;;3;;
75342;SDS011;63936;51.006;13.764;2023-12-28T01:22:01;9;;;3;;
75342;SDS011;63936;51.006;13.764;2023-12-28T01:24:01;14;;;3;;
75342;SDS011;63936;51.006;13.764;2023-12-28T01:26:06;9;;;3;;
75342;SDS011;63936;51.006;13.764;2023-12-28T01:28:03;8;;;4;;
75342;SDS011;63936;51.006;13.764;2023-12-28T01:30:06;8;;;4;;
75342;SDS011;63936;51.006;13.764;2023-12-28T01:32:04;10;;;3;;
75342;SDS011;63936;51.006;13.764;2023-12-28T01:34:01;10;;;4;;
75342;SDS011;63936;51.006;13.764;2023-12-28T01:36:13;7;;;3;;
75342;SDS011;63936;51.006;13.764;2023-12-28T01:38:02;8;;;3;;
75342;SDS011;63936;51.006;13.764;2023-12-28T01:40:06;10;;;4;;
75342;SDS011;63936;51.006;13.764;2023-12-28T01:42:02;8;;;4;;
75342;SDS011;63936;51.006;13.764;2023-12-28T01:44:01;8;;;3;;
75342;SDS011;63936;51.006;13.764;2023-12-28T01:46:02;8;;;3;;
75342;SDS011;63936;51.006;13.764;2023-12-28T01:48:02;8;;;3;;
75342;SDS011;63936;51.006;13.764;2023-12-28T01:50:05;8;;;3;;
75342;SDS011;63936;51.006;13.764;2023-12-28T01:52:01;11;;;4;;
75342;SDS011;63936;51.006;13.764;2023-12-28T01:54:01;8;;;3;;
75342;SDS011;63936;51.006;13.764;2023-12-28T01:56:04;7;;;3;;
75342;SDS011;63936;51.006;13.764;2023-12-28T01:58:03;7;;;3;;
75342;SDS011;63936;51.006;13.764;2023-12-28T02:00:04;7;;;3;;
75342;SDS011;63936;51.006;13.764;2023-12-28T02:02:02;7;;;3;;
75342;SDS011;63936;51.006;13.764;2023-12-28T02:04:01;8;;;3;;
75342;SDS011;63936;51.006;13.764;2023-12-28T02:06:02;7;;;3;;
75342;SDS011;63936;51.006;13.764;2023-12-28T02:08:03;7;;;3;;
75342;SDS011;63936;51.006;13.764;2023-12-28T02:10:01;5;;;2;;
75342;SDS011;63936;51.006;13.764;2023-12-28T02:12:03;4;;;1;;
75342;SDS011;63936;51.006;13.764;2023-12-28T02:14:02;4;;;1;;
75342;SDS011;63936;51.006;13.764;2023-12-28T02:16:07;4;;;1;;
75342;SDS011;63936;51.006;13.764;2023-12-28T02:18:02;4;;;1;;
75342;SDS011;63936;51.006;13.764;2023-12-28T02:20:04;4;;;1;;
75342;SDS011;63936;51.006;13.764;2023-12-28T02:22:02;4;;;1;;
75342;SDS011;63936;51.006;13.764;2023-12-28T02:24:02;4;;;2;;
75342;SDS011;63936;51.006;13.764;2023-12-28T02:26:01;6;;;2;;
75342;SDS011;63936;51.006;13.764;2023-12-28T02:28:01;7;;;3;;
75342;SDS011;63936;51.006;13.764;2023-12-28T02:30:04;8;;;4;;
75342;SDS011;63936;51.006;13.764;2023-12-28T02:32:02;7;;;3;;
75342;SDS011;63936;51.006;13.764;2023-12-28T02:34:04;8;;;3;;
75342;SDS011;63936;51.006;13.764;2023-12-28T02:36:02;7;;;3;;
75342;SDS011;63936;51.006;13.764;2023-12-28T02:38:03;10;;;4;;
75342;SDS011;63936;51.006;13.764;2023-12-28T02:40:02;9;;;3;;
75342;SDS011;63936;51.006;13.764;2023-12-28T02:42:01;8;;;4;;
75342;SDS011;63936;51.006;13.764;2023-12-28T02:44:01;8;;;4;;
75342;SDS011;63936;51.006;13.764;2023-12-28T02:46:01;8;;;3;;
75342;SDS011;63936;51.006;13.764;2023-12-28T02:48:01;7;;;3;;
75342;SDS011;63936;51.006;13.764;2023-12-28T02:50:01;7;;;3;;
75342;SDS011;63936;51.006;13.764;2023-12-28T02:52:01;7;;;3;;
75342;SDS011;63936;51.006;13.764;2023-12-28T02:54:01;6;;;2;;
75342;SDS011;63936;51.006;13.764;2023-12-28T02:56:01;5;;;2;;
75342;SDS011;63936;51.006;13.764;2023-12-28T02:58:01;5;;;1;;
75342;SDS011;63936;51.006;13.764;2023-12-28T03:00:01;4;;;1;;
75342;SDS011;63936;51.006;13.764;2023-12-28T03:02:01;4;;;1;;
75342;SDS011;63936;51.006;13.764;2023-12-28T03:04:01;5;;;1;;
75342;SDS011;63936;51.006;13.764;2023-12-28T03:06:01;5;;;1;;
75342;SDS011;63936;51.006;13.764;2023-12-28T03:08:01;4;;;1;;
75342;SDS011;63936;51.006;13.764;2023-12-28T03:10:02;4;;;1;;
75342;SDS011;63936;51.006;13.764;2023-12-28T03:12:02;4;;;1;;
75342;SDS011;63936;51.006;13.764;2023-12-28T03:14:02;4;;;1;;
75342;SDS011;63936;51.006;13.764;2023-12-28T03:16:02;5;;;1;;
75342;SDS011;63936;51.006;13.764;2023-12-28T03:18:02;4;;;1;;
75342;SDS011;63936;51.006;13.764;2023-12-28T03:20:02;3;;;1;;
75342;SDS011;63936;51.006;13.764;2023-12-28T03:22:01;5;;;1;;
75342;SDS011;63936;51.006;13.764;2023-12-28T03:24:01;4;;;1;;
75342;SDS011;63936;51.006;13.764;2023-12-28T03:26:01;4;;;1;;
75342;SDS011;63936;51.006;13.764;2023-12-28T03:28:01;4;;;1;;
75342;SDS011;63936;51.006;13.764;2023-12-28T03:30:01;5;;;1;;
75342;SDS011;63936;51.006;13.764;2023-12-28T03:32:01;4;;;1;;
75342;SDS011;63936;51.006;13.764;2023-12-28T03:34:01;4;;;1;;
75342;SDS011;63936;51.006;13.764;2023-12-28T03:36:01;4;;;1;;
75342;SDS011;63936;51.006;13.764;2023-12-28T03:38:01;4;;;1;;
75342;SDS011;63936;51.006;13.764;2023-12-28T03:40:02;4;;;1;;
75342;SDS011;63936;51.006;13.764;2023-12-28T03:42:04;4;;;1;;
75342;SDS011;63936;51.006;13.764;2023-12-28T03:44:03;5;;;2;;
75342;SDS011;63936;51.006;13.764;2023-12-28T03:46:02;6;;;2;;
75342;SDS011;63936;51.006;13.764;2023-12-28T03:48:02;6;;;2;;
75342;SDS011;63936;51.006;13.764;2023-12-28T03:50:01;7;;;3;;
75342;SDS011;63936;51.006;13.764;2023-12-28T03:52:01;6;;;3;;
75342;SDS011;63936;51.006;13.764;2023-12-28T03:54:01;6;;;3;;
75342;SDS011;63936;51.006;13.764;2023-12-28T03:56:01;7;;;3;;
75342;SDS011;63936;51.006;13.764;2023-12-28T03:58:01;7;;;3;;
75342;SDS011;63936;51.006;13.764;2023-12-28T04:00:02;6;;;3;;
75342;SDS011;63936;51.006;13.764;2023-12-28T04:02:02;5;;;2;;
75342;SDS011;63936;51.006;13.764;2023-12-28T04:04:03;4;;;2;;
75342;SDS011;63936;51.006;13.764;2023-12-28T04:06:06;5;;;2;;
75342;SDS011;63936;51.006;13.764;2023-12-28T04:08:02;6;;;1;;
75342;SDS011;63936;51.006;13.764;2023-12-28T04:10:02;5;;;2;;
75342;SDS011;63936;51.006;13.764;2023-12-28T04:12:01;4;;;1;;
75342;SDS011;63936;51.006;13.764;2023-12-28T04:14:01;4;;;1;;
75342;SDS011;63936;51.006;13.764;2023-12-28T04:16:01;4;;;1;;
75342;SDS011;63936;51.006;13.764;2023-12-28T04:18:01;5;;;1;;
75342;SDS011;63936;51.006;13.764;2023-12-28T04:20:02;4;;;1;;
75342;SDS011;63936;51.006;13.764;2023-12-28T04:22:01;5;;;1;;
75342;SDS011;63936;51.006;13.764;2023-12-28T04:24:01;4;;;1;;
75342;SDS011;63936;51.006;13.764;2023-12-28T04:26:01;4;;;1;;
75342;SDS011;63936;51.006;13.764;2023-12-28T04:28:01;5;;;1;;
75342;SDS011;63936;51.006;13.764;2023-12-28T04:30:02;4;;;1;;
75342;SDS011;63936;51.006;13.764;2023-12-28T04:32:02;4;;;1;;
75342;SDS011;63936;51.006;13.764;2023-12-28T04:34:01;4;;;1;;
75342;SDS011;63936;51.006;13.764;2023-12-28T04:36:02;5;;;1;;
75342;SDS011;63936;51.006;13.764;2023-12-28T04:38:02;5;;;2;;
75342;SDS011;63936;51.006;13.764;2023-12-28T04:40:02;5;;;2;;
75342;SDS011;63936;51.006;13.764;2023-12-28T04:42:01;5;;;2;;
75342;SDS011;63936;51.006;13.764;2023-12-28T04:44:01;5;;;2;;
75342;SDS011;63936;51.006;13.764;2023-12-28T04:46:03;4;;;2;;
75342;SDS011;63936;51.006;13.764;2023-12-28T04:48:01;4;;;2;;
75342;SDS011;63936;51.006;13.764;2023-12-28T04:50:02;5;;;2;;
75342;SDS011;63936;51.006;13.764;2023-12-28T04:52:02;4;;;2;;
75342;SDS011;63936;51.006;13.764;2023-12-28T04:54:01;5;;;2;;
75342;SDS011;63936;51.006;13.764;2023-12-28T04:56:02;4;;;2;;
75342;SDS011;63936;51.006;13.764;2023-12-28T04:58:02;5;;;2;;
75342;SDS011;63936;51.006;13.764;2023-12-28T05:00:02;7;;;3;;
75342;SDS011;63936;51.006;13.764;2023-12-28T05:02:01;7;;;3;;
75342;SDS011;63936;51.006;13.764;2023-12-28T05:04:01;9;;;4;;
75342;SDS011;63936;51.006;13.764;2023-12-28T05:06:01;14;;;3;;
75342;SDS011;63936;51.006;13.764;2023-12-28T05:08:01;7;;;4;;
75342;SDS011;63936;51.006;13.764;2023-12-28T05:10:02;7;;;4;;
75342;SDS011;63936;51.006;13.764;2023-12-28T05:12:02;8;;;3;;
75342;SDS011;63936;51.006;13.764;2023-12-28T05:14:02;10;;;4;;
75342;SDS011;63936;51.006;13.764;2023-12-28T05:16:02;6;;;3;;
75342;SDS011;63936;51.006;13.764;2023-12-28T05:18:02;9;;;4;;
75342;SDS011;63936;51.006;13.764;2023-12-28T05:20:02;9;;;3;;
75342;SDS011;63936;51.006;13.764;2023-12-28T05:22:01;8;;;3;;
75342;SDS011;63936;51.006;13.764;2023-12-28T05:24:01;8;;;3;;
75342;SDS011;63936;51.006;13.764;2023-12-28T05:26:01;7;;;3;;
75342;SDS011;63936;51.006;13.764;2023-12-28T05:28:01;7;;;3;;
75342;SDS011;63936;51.006;13.764;2023-12-28T05:30:02;8;;;3;;
75342;SDS011;63936;51.006;13.764;2023-12-28T05:32:01;8;;;4;;
75342;SDS011;63936;51.006;13.764;2023-12-28T05:34:01;7;;;3;;
75342;SDS011;63936;51.006;13.764;2023-12-28T05:36:01;7;;;3;;
75342;SDS011;63936;51.006;13.764;2023-12-28T05:38:01;8;;;3;;
75342;SDS011;63936;51.006;13.764;2023-12-28T05:40:02;8;;;3;;
75342;SDS011;63936;51.006;13.764;2023-12-28T05:42:02;6;;;3;;
75342;SDS011;63936;51.006;13.764;2023-12-28T05:44:02;7;;;3;;
75342;SDS011;63936;51.006;13.764;2023-12-28T05:46:02;9;;;3;;
75342;SDS011;63936;51.006;13.764;2023-12-28T05:48:01;9;;;3;;
75342;SDS011;63936;51.006;13.764;2023-12-28T05:50:01;11;;;3;;
75342;SDS011;63936;51.006;13.764;2023-12-28T05:52:01;9;;;3;;
75342;SDS011;63936;51.006;13.764;2023-12-28T05:54:01;8;;;3;;
75342;SDS011;63936;51.006;13.764;2023-12-28T05:56:01;9;;;3;;
75342;SDS011;63936;51.006;13.764;2023-12-28T05:58:01;7;;;4;;
75342;SDS011;63936;51.006;13.764;2023-12-28T06:00:02;7;;;3;;
75342;SDS011;63936;51.006;13.764;2023-12-28T06:02:01;6;;;3;;
75342;SDS011;63936;51.006;13.764;2023-12-28T06:04:01;7;;;3;;
75342;SDS011;63936;51.006;13.764;2023-12-28T06:06:01;7;;;3;;
75342;SDS011;63936;51.006;13.764;2023-12-28T06:08:01;9;;;4;;
75342;SDS011;63936;51.006;13.764;2023-12-28T06:10:02;7;;;3;;
75342;SDS011;63936;51.006;13.764;2023-12-28T06:12:02;7;;;3;;
75342;SDS011;63936;51.006;13.764;2023-12-28T06:14:02;8;;;4;;
75342;SDS011;63936;51.006;13.764;2023-12-28T06:16:02;8;;;4;;
75342;SDS011;63936;51.006;13.764;2023-12-28T06:18:01;10;;;3;;
75342;SDS011;63936;51.006;13.764;2023-12-28T06:20:01;12;;;4;;
75342;SDS011;63936;51.006;13.764;2023-12-28T06:22:01;18;;;6;;
75342;SDS011;63936;51.006;13.764;2023-12-28T06:24:01;19;;;7;;
75342;SDS011;63936;51.006;13.764;2023-12-28T06:26:04;26;;;10;;
75342;SDS011;63936;51.006;13.764;2023-12-28T06:28:01;21;;;8;;
75342;SDS011;63936;51.006;13.764;2023-12-28T06:30:02;24;;;9;;
75342;SDS011;63936;51.006;13.764;2023-12-28T06:32:01;18;;;7;;
75342;SDS011;63936;51.006;13.764;2023-12-28T06:34:02;16;;;6;;
75342;SDS011;63936;51.006;13.764;2023-12-28T06:36:05;14;;;5;;
75342;SDS011;63936;51.006;13.764;2023-12-28T06:38:02;7;;;3;;
75342;SDS011;63936;51.006;13.764;2023-12-28T06:40:05;6;;;2;;
75342;SDS011;63936;51.006;13.764;2023-12-28T06:42:03;5;;;2;;
75342;SDS011;63936;51.006;13.764;2023-12-28T06:44:03;4;;;2;;
75342;SDS011;63936;51.006;13.764;2023-12-28T06:46:02;5;;;2;;
75342;SDS011;63936;51.006;13.764;2023-12-28T06:48:02;5;;;2;;
75342;SDS011;63936;51.006;13.764;2023-12-28T06:50:04;5;;;2;;
75342;SDS011;63936;51.006;13.764;2023-12-28T06:52:02;6;;;2;;
75342;SDS011;63936;51.006;13.764;2023-12-28T06:54:02;5;;;2;;
75342;SDS011;63936;51.006;13.764;2023-12-28T06:56:02;5;;;2;;
75342;SDS011;63936;51.006;13.764;2023-12-28T06:58:02;5;;;2;;
75342;SDS011;63936;51.006;13.764;2023-12-28T07:00:04;5;;;2;;
75342;SDS011;63936;51.006;13.764;2023-12-28T07:02:02;5;;;2;;
75342;SDS011;63936;51.006;13.764;2023-12-28T07:04:02;5;;;2;;
75342;SDS011;63936;51.006;13.764;2023-12-28T07:06:02;4;;;2;;
75342;SDS011;63936;51.006;13.764;2023-12-28T07:08:01;5;;;2;;
75342;SDS011;63936;51.006;13.764;2023-12-28T07:10:04;4;;;1;;
75342;SDS011;63936;51.006;13.764;2023-12-28T07:12:01;4;;;1;;
75342;SDS011;63936;51.006;13.764;2023-12-28T07:14:01;5;;;2;;
75342;SDS011;63936;51.006;13.764;2023-12-28T07:16:02;5;;;2;;
75342;SDS011;63936;51.006;13.764;2023-12-28T07:18:02;5;;;2;;
75342;SDS011;63936;51.006;13.764;2023-12-28T07:20:03;8;;;2;;
75342;SDS011;63936;51.006;13.764;2023-12-28T07:22:02;5;;;2;;
75342;SDS011;63936;51.006;13.764;2023-12-28T07:24:02;5;;;2;;
75342;SDS011;63936;51.006;13.764;2023-12-28T07:26:01;4;;;2;;
75342;SDS011;63936;51.006;13.764;2023-12-28T07:28:01;5;;;2;;
75342;SDS011;63936;51.006;13.764;2023-12-28T07:30:05;5;;;2;;
75342;SDS011;63936;51.006;13.764;2023-12-28T07:32:01;5;;;2;;
75342;SDS011;63936;51.006;13.764;2023-12-28T07:34:02;7;;;2;;
75342;SDS011;63936;51.006;13.764;2023-12-28T07:36:02;6;;;2;;
75342;SDS011;63936;51.006;13.764;2023-12-28T07:38:02;5;;;2;;
75342;SDS011;63936;51.006;13.764;2023-12-28T07:40:04;5;;;2;;
75342;SDS011;63936;51.006;13.764;2023-12-28T07:42:01;5;;;2;;
75342;SDS011;63936;51.006;13.764;2023-12-28T07:44:02;7;;;2;;
75342;SDS011;63936;51.006;13.764;2023-12-28T07:46:01;6;;;2;;
75342;SDS011;63936;51.006;13.764;2023-12-28T07:48:02;5;;;2;;
75342;SDS011;63936;51.006;13.764;2023-12-28T07:50:04;5;;;2;;
75342;SDS011;63936;51.006;13.764;2023-12-28T07:52:02;6;;;2;;
75342;SDS011;63936;51.006;13.764;2023-12-28T07:54:02;5;;;2;;
75342;SDS011;63936;51.006;13.764;2023-12-28T07:56:01;5;;;2;;
75342;SDS011;63936;51.006;13.764;2023-12-28T07:58:01;6;;;2;;
75342;SDS011;63936;51.006;13.764;2023-12-28T08:00:03;7;;;2;;
75342;SDS011;63936;51.006;13.764;2023-12-28T08:02:02;6;;;2;;
75342;SDS011;63936;51.006;13.764;2023-12-28T08:04:02;7;;;2;;
75342;SDS011;63936;51.006;13.764;2023-12-28T08:06:01;7;;;2;;
75342;SDS011;63936;51.006;13.764;2023-12-28T08:08:02;5;;;2;;
75342;SDS011;63936;51.006;13.764;2023-12-28T08:10:02;5;;;2;;
75342;SDS011;63936;51.006;13.764;2023-12-28T08:12:02;5;;;2;;
75342;SDS011;63936;51.006;13.764;2023-12-28T08:14:02;5;;;2;;
75342;SDS011;63936;51.006;13.764;2023-12-28T08:16:02;5;;;2;;
75342;SDS011;63936;51.006;13.764;2023-12-28T08:18:02;5;;;2;;
75342;SDS011;63936;51.006;13.764;2023-12-28T08:20:03;5;;;2;;
75342;SDS011;63936;51.006;13.764;2023-12-28T08:22:02;5;;;2;;
75342;SDS011;63936;51.006;13.764;2023-12-28T08:24:02;7;;;2;;
75342;SDS011;63936;51.006;13.764;2023-12-28T08:26:02;7;;;2;;
75342;SDS011;63936;51.006;13.764;2023-12-28T08:28:02;5;;;2;;
75342;SDS011;63936;51.006;13.764;2023-12-28T08:30:04;5;;;2;;
75342;SDS011;63936;51.006;13.764;2023-12-28T08:32:02;5;;;2;;
75342;SDS011;63936;51.006;13.764;2023-12-28T08:34:02;5;;;2;;
75342;SDS011;63936;51.006;13.764;2023-12-28T08:36:02;6;;;2;;
75342;SDS011;63936;51.006;13.764;2023-12-28T08:38:02;6;;;2;;
75342;SDS011;63936;51.006;13.764;2023-12-28T08:40:03;6;;;2;;
75342;SDS011;63936;51.006;13.764;2023-12-28T08:42:01;7;;;2;;
75342;SDS011;63936;51.006;13.764;2023-12-28T08:44:01;5;;;2;;
75342;SDS011;63936;51.006;13.764;2023-12-28T08:46:01;5;;;2;;
75342;SDS011;63936;51.006;13.764;2023-12-28T08:48:01;5;;;2;;
75342;SDS011;63936;51.006;13.764;2023-12-28T08:50:03;5;;;2;;
75342;SDS011;63936;51.006;13.764;2023-12-28T08:52:02;5;;;2;;
75342;SDS011;63936;51.006;13.764;2023-12-28T08:54:02;5;;;2;;
75342;SDS011;63936;51.006;13.764;2023-12-28T08:56:01;5;;;2;;
75342;SDS011;63936;51.006;13.764;2023-12-28T08:58:01;5;;;2;;
75342;SDS011;63936;51.006;13.764;2023-12-28T09:00:04;5;;;2;;
75342;SDS011;63936;51.006;13.764;2023-12-28T09:02:02;5;;;2;;
75342;SDS011;63936;51.006;13.764;2023-12-28T09:04:02;6;;;2;;
75342;SDS011;63936;51.006;13.764;2023-12-28T09:06:01;5;;;2;;
75342;SDS011;63936;51.006;13.764;2023-12-28T09:08:01;6;;;2;;
75342;SDS011;63936;51.006;13.764;2023-12-28T09:10:02;6;;;2;;
75342;SDS011;63936;51.006;13.764;2023-12-28T09:12:01;5;;;2;;
75342;SDS011;63936;51.006;13.764;2023-12-28T09:14:01;5;;;2;;
75342;SDS011;63936;51.006;13.764;2023-12-28T09:16:01;5;;;2;;
75342;SDS011;63936;51.006;13.764;2023-12-28T09:18:01;5;;;2;;
75342;SDS011;63936;51.006;13.764;2023-12-28T09:20:03;5;;;2;;
75342;SDS011;63936;51.006;13.764;2023-12-28T09:22:03;5;;;2;;
75342;SDS011;63936;51.006;13.764;2023-12-28T09:24:01;5;;;2;;
75342;SDS011;63936;51.006;13.764;2023-12-28T09:26:02;6;;;2;;
75342;SDS011;63936;51.006;13.764;2023-12-28T09:28:02;5;;;2;;
75342;SDS011;63936;51.006;13.764;2023-12-28T09:30:03;5;;;2;;
75342;SDS011;63936;51.006;13.764;2023-12-28T09:32:01;6;;;3;;
75342;SDS011;63936;51.006;13.764;2023-12-28T09:34:02;6;;;2;;
75342;SDS011;63936;51.006;13.764;2023-12-28T09:36:02;4;;;1;;
75342;SDS011;63936;51.006;13.764;2023-12-28T09:38:02;5;;;2;;
75342;SDS011;63936;51.006;13.764;2023-12-28T09:40:03;6;;;2;;
75342;SDS011;63936;51.006;13.764;2023-12-28T09:42:04;5;;;2;;
75342;SDS011;63936;51.006;13.764;2023-12-28T09:44:04;5;;;2;;
75342;SDS011;63936;51.006;13.764;2023-12-28T09:46:01;5;;;2;;
75342;SDS011;63936;51.006;13.764;2023-12-28T09:48:01;6;;;2;;
75342;SDS011;63936;51.006;13.764;2023-12-28T09:50:02;6;;;2;;
75342;SDS011;63936;51.006;13.764;2023-12-28T09:52:01;5;;;2;;
75342;SDS011;63936;51.006;13.764;2023-12-28T09:54:02;5;;;2;;
75342;SDS011;63936;51.006;13.764;2023-12-28T09:56:01;6;;;2;;
75342;SDS011;63936;51.006;13.764;2023-12-28T09:58:01;5;;;2;;
75342;SDS011;63936;51.006;13.764;2023-12-28T10:00:03;5;;;2;;
75342;SDS011;63936;51.006;13.764;2023-12-28T10:02:01;5;;;2;;
75342;SDS011;63936;51.006;13.764;2023-12-28T10:04:01;6;;;2;;
75342;SDS011;63936;51.006;13.764;2023-12-28T10:06:02;6;;;2;;
75342;SDS011;63936;51.006;13.764;2023-12-28T10:08:02;5;;;2;;
75342;SDS011;63936;51.006;13.764;2023-12-28T10:10:02;5;;;2;;
75342;SDS011;63936;51.006;13.764;2023-12-28T10:12:01;6;;;2;;
75342;SDS011;63936;51.006;13.764;2023-12-28T10:14:01;6;;;2;;
75342;SDS011;63936;51.006;13.764;2023-12-28T10:16:02;5;;;2;;
75342;SDS011;63936;51.006;13.764;2023-12-28T10:18:02;5;;;2;;
75342;SDS011;63936;51.006;13.764;2023-12-28T10:20:03;6;;;2;;
75342;SDS011;63936;51.006;13.764;2023-12-28T10:22:01;5;;;2;;
75342;SDS011;63936;51.006;13.764;2023-12-28T10:24:02;5;;;2;;
75342;SDS011;63936;51.006;13.764;2023-12-28T10:26:03;4;;;2;;
75342;SDS011;63936;51.006;13.764;2023-12-28T10:28:03;5;;;2;;
75342;SDS011;63936;51.006;13.764;2023-12-28T10:30:02;5;;;2;;
75342;SDS011;63936;51.006;13.764;2023-12-28T10:32:01;6;;;2;;
75342;SDS011;63936;51.006;13.764;2023-12-28T10:34:01;6;;;2;;
75342;SDS011;63936;51.006;13.764;2023-12-28T10:36:03;5;;;2;;
75342;SDS011;63936;51.006;13.764;2023-12-28T10:38:02;6;;;2;;
75342;SDS011;63936;51.006;13.764;2023-12-28T10:40:02;5;;;2;;
75342;SDS011;63936;51.006;13.764;2023-12-28T10:42:02;5;;;2;;
75342;SDS011;63936;51.006;13.764;2023-12-28T10:44:02;5;;;2;;
75342;SDS011;63936;51.006;13.764;2023-12-28T10:46:01;5;;;2;;
75342;SDS011;63936;51.006;13.764;2023-12-28T10:48:04;5;;;2;;
75342;SDS011;63936;51.006;13.764;2023-12-28T10:50:04;5;;;2;;
75342;SDS011;63936;51.006;13.764;2023-12-28T10:52:01;5;;;2;;
75342;SDS011;63936;51.006;13.764;2023-12-28T10:54:05;5;;;2;;
75342;SDS011;63936;51.006;13.764;2023-12-28T10:56:05;5;;;2;;
75342;SDS011;63936;51.006;13.764;2023-12-28T10:58:05;5;;;2;;
75342;SDS011;63936;51.006;13.764;2023-12-28T11:00:06;5;;;2;;
75342;SDS011;63936;51.006;13.764;2023-12-28T11:02:02;5;;;2;;
75342;SDS011;63936;51.006;13.764;2023-12-28T11:04:02;6;;;2;;
75342;SDS011;63936;51.006;13.764;2023-12-28T11:06:02;5;;;2;;
75342;SDS011;63936;51.006;13.764;2023-12-28T11:08:02;6;;;2;;
75342;SDS011;63936;51.006;13.764;2023-12-28T11:10:03;4;;;2;;
75342;SDS011;63936;51.006;13.764;2023-12-28T11:12:01;5;;;2;;
75342;SDS011;63936;51.006;13.764;2023-12-28T11:14:01;6;;;2;;
75342;SDS011;63936;51.006;13.764;2023-12-28T11:16:01;6;;;2;;
75342;SDS011;63936;51.006;13.764;2023-12-28T11:18:01;5;;;2;;
75342;SDS011;63936;51.006;13.764;2023-12-28T11:20:01;5;;;2;;
75342;SDS011;63936;51.006;13.764;2023-12-28T11:22:01;5;;;2;;
75342;SDS011;63936;51.006;13.764;2023-12-28T11:24:01;5;;;2;;
75342;SDS011;63936;51.006;13.764;2023-12-28T11:26:01;5;;;2;;
75342;SDS011;63936;51.006;13.764;2023-12-28T11:28:08;5;;;2;;
75342;SDS011;63936;51.006;13.764;2023-12-28T11:30:02;5;;;2;;
75342;SDS011;63936;51.006;13.764;2023-12-28T11:32:01;5;;;2;;
75342;SDS011;63936;51.006;13.764;2023-12-28T11:34:01;5;;;2;;
75342;SDS011;63936;51.006;13.764;2023-12-28T11:36:01;5;;;2;;
75342;SDS011;63936;51.006;13.764;2023-12-28T11:38:01;5;;;2;;
75342;SDS011;63936;51.006;13.764;2023-12-28T11:40:09;5;;;2;;
75342;SDS011;63936;51.006;13.764;2023-12-28T11:42:01;6;;;2;;
75342;SDS011;63936;51.006;13.764;2023-12-28T11:44:01;5;;;2;;
75342;SDS011;63936;51.006;13.764;2023-12-28T11:46:01;5;;;2;;
75342;SDS011;63936;51.006;13.764;2023-12-28T11:48:01;5;;;2;;
75342;SDS011;63936;51.006;13.764;2023-12-28T11:50:06;5;;;2;;
75342;SDS011;63936;51.006;13.764;2023-12-28T11:52:01;5;;;2;;
75342;SDS011;63936;51.006;13.764;2023-12-28T11:54:01;5;;;2;;
75342;SDS011;63936;51.006;13.764;2023-12-28T11:56:01;5;;;2;;
75342;SDS011;63936;51.006;13.764;2023-12-28T11:58:01;5;;;2;;
75342;SDS011;63936;51.006;13.764;2023-12-28T12:00:02;5;;;2;;
75342;SDS011;63936;51.006;13.764;2023-12-28T12:02:01;5;;;2;;
75342;SDS011;63936;51.006;13.764;2023-12-28T12:04:01;4;;;2;;
75342;SDS011;63936;51.006;13.764;2023-12-28T12:06:01;5;;;2;;
75342;SDS011;63936;51.006;13.764;2023-12-28T12:08:02;5;;;2;;
75342;SDS011;63936;51.006;13.764;2023-12-28T12:10:02;5;;;2;;
75342;SDS011;63936;51.006;13.764;2023-12-28T12:12:01;5;;;2;;
75342;SDS011;63936;51.006;13.764;2023-12-28T12:14:01;5;;;2;;
75342;SDS011;63936;51.006;13.764;2023-12-28T12:16:01;5;;;2;;
75342;SDS011;63936;51.006;13.764;2023-12-28T12:18:01;6;;;2;;
75342;SDS011;63936;51.006;13.764;2023-12-28T12:20:01;6;;;2;;
75342;SDS011;63936;51.006;13.764;2023-12-28T12:22:01;5;;;2;;
75342;SDS011;63936;51.006;13.764;2023-12-28T12:24:01;6;;;2;;
75342;SDS011;63936;51.006;13.764;2023-12-28T12:26:04;5;;;2;;
75342;SDS011;63936;51.006;13.764;2023-12-28T12:28:01;5;;;2;;
75342;SDS011;63936;51.006;13.764;2023-12-28T12:30:01;5;;;2;;
75342;SDS011;63936;51.006;13.764;2023-12-28T12:32:01;5;;;2;;
75342;SDS011;63936;51.006;13.764;2023-12-28T12:34:01;5;;;2;;
75342;SDS011;63936;51.006;13.764;2023-12-28T12:36:01;5;;;2;;
75342;SDS011;63936;51.006;13.764;2023-12-28T12:38:01;5;;;2;;
75342;SDS011;63936;51.006;13.764;2023-12-28T12:40:03;5;;;2;;
75342;SDS011;63936;51.006;13.764;2023-12-28T12:42:02;5;;;2;;
75342;SDS011;63936;51.006;13.764;2023-12-28T12:44:02;5;;;2;;
75342;SDS011;63936;51.006;13.764;2023-12-28T12:46:02;5;;;2;;
75342;SDS011;63936;51.006;13.764;2023-12-28T12:48:02;5;;;2;;
75342;SDS011;63936;51.006;13.764;2023-12-28T12:50:02;5;;;2;;
75342;SDS011;63936;51.006;13.764;2023-12-28T12:52:01;5;;;2;;
75342;SDS011;63936;51.006;13.764;2023-12-28T12:54:02;5;;;2;;
75342;SDS011;63936;51.006;13.764;2023-12-28T12:56:02;5;;;2;;
75342;SDS011;63936;51.006;13.764;2023-12-28T12:58:01;5;;;2;;
75342;SDS011;63936;51.006;13.764;2023-12-28T13:00:01;5;;;2;;